createdAt,value
2023-05-13T00:00:18.411Z,24.98
2023-05-13T00:02:24.059Z,24.97
2023-05-13T00:04:29.535Z,24.99
2023-05-13T00:06:34.702Z,25
2023-05-13T00:08:40.566Z,24.98
2023-05-13T00:10:45.702Z,24.98
2023-05-13T00:12:50.841Z,24.97
2023-05-13T00:14:55.984Z,24.96
2023-05-13T00:17:01.057Z,24.97
2023-05-13T00:19:06.374Z,24.97
2023-05-13T00:21:11.990Z,24.97
2023-05-13T00:23:17.127Z,24.96
2023-05-13T00:25:22.268Z,24.94
2023-05-13T00:27:27.326Z,24.95
2023-05-13T00:29:32.373Z,24.94
2023-05-13T00:31:37.699Z,24.95
2023-05-13T00:33:43.028Z,24.98
2023-05-13T00:35:48.106Z,24.98
2023-05-13T00:37:53.201Z,24.97
2023-05-13T00:39:58.290Z,24.97
2023-05-13T00:42:03.457Z,24.98
2023-05-13T00:44:08.635Z,24.97
2023-05-13T00:46:16.060Z,24.97
2023-05-13T00:48:21.486Z,24.97
2023-05-13T00:50:26.593Z,24.95
2023-05-13T00:52:31.634Z,24.97
2023-05-13T00:54:37.003Z,24.96
2023-05-13T00:56:42.154Z,24.95
2023-05-13T00:58:47.234Z,24.94
2023-05-13T01:00:52.437Z,24.93
2023-05-13T01:02:57.765Z,24.92
2023-05-13T01:05:03.349Z,24.92
2023-05-13T01:07:08.493Z,24.92
2023-05-13T01:09:13.706Z,24.91
2023-05-13T01:11:18.816Z,24.9
2023-05-13T01:13:23.903Z,24.89
2023-05-13T01:15:29.065Z,24.89
2023-05-13T01:17:34.154Z,24.87
2023-05-13T01:19:39.357Z,24.83
2023-05-13T01:21:44.492Z,24.8
2023-05-13T01:23:49.571Z,24.81
2023-05-13T01:25:55.238Z,24.81
2023-05-13T01:28:00.313Z,24.77
2023-05-13T01:30:05.433Z,24.8
2023-05-13T01:32:10.507Z,24.79
2023-05-13T01:34:15.783Z,24.81
2023-05-13T01:36:21.037Z,24.86
2023-05-13T01:38:26.107Z,24.87
2023-05-13T01:40:33.001Z,24.86
2023-05-13T01:42:39.270Z,24.85
2023-05-13T01:44:44.356Z,24.81
2023-05-13T01:46:49.716Z,24.81
2023-05-13T01:48:55.131Z,24.82
2023-05-13T01:51:00.204Z,24.81
2023-05-13T01:53:05.550Z,24.8
2023-05-13T01:55:10.625Z,24.8
2023-05-13T01:57:15.720Z,24.8
2023-05-13T01:59:20.800Z,24.8
2023-05-13T02:01:25.893Z,24.8
2023-05-13T02:03:31.187Z,24.8
2023-05-13T02:05:36.531Z,24.78
2023-05-13T02:07:41.746Z,24.76
2023-05-13T02:09:46.827Z,24.77
2023-05-13T02:11:51.889Z,24.78
2023-05-13T02:13:57.070Z,24.79
2023-05-13T02:16:02.185Z,24.77
2023-05-13T02:18:07.856Z,24.74
2023-05-13T02:20:13.176Z,24.76
2023-05-13T02:22:18.374Z,24.76
2023-05-13T02:24:23.662Z,24.75
2023-05-13T02:26:28.747Z,24.76
2023-05-13T02:28:33.876Z,24.75
2023-05-13T02:30:38.970Z,24.75
2023-05-13T02:32:44.072Z,24.75
2023-05-13T02:34:49.490Z,24.74
2023-05-13T02:36:54.721Z,24.74
2023-05-13T02:38:59.829Z,24.74
2023-05-13T02:41:04.907Z,24.71
2023-05-13T02:43:09.993Z,24.72
2023-05-13T02:45:15.048Z,24.73
2023-05-13T02:47:20.134Z,24.72
2023-05-13T02:49:32.241Z,24.68
2023-05-13T02:51:37.421Z,24.7
2023-05-13T02:53:42.551Z,24.7
2023-05-13T02:55:47.681Z,24.67
2023-05-13T02:57:52.834Z,24.67
2023-05-13T02:59:57.928Z,24.66
2023-05-13T03:02:03.175Z,24.68
2023-05-13T03:04:08.346Z,24.65
2023-05-13T03:06:13.412Z,24.66
2023-05-13T03:08:18.585Z,24.67
2023-05-13T03:10:23.804Z,24.66
2023-05-13T03:12:28.918Z,24.67
2023-05-13T03:14:33.989Z,24.68
2023-05-13T03:16:39.062Z,24.64
2023-05-13T03:18:44.433Z,24.64
2023-05-13T03:20:49.717Z,24.64
2023-05-13T03:22:54.845Z,24.65
2023-05-13T03:24:59.979Z,24.66
2023-05-13T03:27:05.201Z,24.65
2023-05-13T03:29:10.370Z,24.63
2023-05-13T03:31:15.550Z,24.61
2023-05-13T03:33:20.792Z,24.6
2023-05-13T03:35:25.919Z,24.59
2023-05-13T03:37:30.968Z,24.6
2023-05-13T03:39:36.123Z,24.58
2023-05-13T03:41:41.357Z,24.61
2023-05-13T03:43:46.399Z,24.61
2023-05-13T03:45:51.629Z,24.61
2023-05-13T03:47:57.147Z,24.6
2023-05-13T03:50:02.489Z,24.58
2023-05-13T03:52:07.715Z,24.56
2023-05-13T03:54:12.800Z,24.57
2023-05-13T03:56:18.096Z,24.56
2023-05-13T03:58:23.153Z,24.56
2023-05-13T04:00:28.189Z,24.56
2023-05-13T04:02:33.383Z,24.53
2023-05-13T04:04:38.950Z,24.55
2023-05-13T04:06:44.247Z,24.57
2023-05-13T04:08:49.382Z,24.55
2023-05-13T04:10:54.505Z,24.58
2023-05-13T04:12:59.578Z,24.59
2023-05-13T04:15:04.641Z,24.57
2023-05-13T04:17:09.825Z,24.56
2023-05-13T04:19:15.438Z,24.54
2023-05-13T04:21:23.349Z,24.51
2023-05-13T04:23:28.523Z,24.51
2023-05-13T04:25:33.719Z,24.5
2023-05-13T04:27:38.864Z,24.51
2023-05-13T04:29:43.991Z,24.51
2023-05-13T04:31:49.249Z,24.52
2023-05-13T04:33:54.966Z,24.5
2023-05-13T04:36:00.048Z,24.49
2023-05-13T04:38:05.135Z,24.47
2023-05-13T04:40:10.238Z,24.43
2023-05-13T04:42:15.312Z,24.42
2023-05-13T04:44:20.403Z,24.45
2023-05-13T04:46:25.678Z,24.45
2023-05-13T04:48:31.251Z,24.44
2023-05-13T04:50:37.886Z,24.44
2023-05-13T04:52:44.381Z,24.43
2023-05-13T04:54:49.569Z,24.45
2023-05-13T04:56:54.648Z,24.47
2023-05-13T04:58:59.733Z,24.5
2023-05-13T05:01:04.774Z,24.5
2023-05-13T05:03:10.094Z,24.49
2023-05-13T05:05:17.584Z,24.47
2023-05-13T05:07:23.414Z,24.49
2023-05-13T05:09:28.531Z,24.5
2023-05-13T05:11:33.652Z,24.48
2023-05-13T05:13:38.705Z,24.49
2023-05-13T05:15:43.853Z,24.49
2023-05-13T05:17:49.042Z,24.49
2023-05-13T05:19:54.447Z,24.5
2023-05-13T05:21:59.530Z,24.5
2023-05-13T05:24:04.583Z,24.51
2023-05-13T05:26:11.960Z,24.51
2023-05-13T05:28:17.276Z,24.49
2023-05-13T05:30:22.597Z,24.48
2023-05-13T05:32:28.310Z,24.51
2023-05-13T05:34:33.521Z,24.51
2023-05-13T05:36:38.765Z,24.52
2023-05-13T05:38:43.846Z,24.53
2023-05-13T05:40:48.933Z,24.5
2023-05-13T05:42:54.065Z,24.47
2023-05-13T05:44:59.115Z,24.49
2023-05-13T05:47:04.198Z,24.5
2023-05-13T05:49:09.403Z,24.47
2023-05-13T05:51:14.564Z,24.46
2023-05-13T05:53:19.662Z,24.48
2023-05-13T05:55:24.830Z,24.5
2023-05-13T05:57:29.884Z,24.52
2023-05-13T05:59:35.047Z,24.52
2023-05-13T06:01:40.208Z,24.54
2023-05-13T06:03:45.387Z,24.57
2023-05-13T06:05:50.860Z,24.57
2023-05-13T06:07:56.137Z,24.58
2023-05-13T06:10:01.338Z,24.51
2023-05-13T06:12:07.696Z,24.49
2023-05-13T06:14:12.782Z,24.48
2023-05-13T06:16:18.362Z,24.49
2023-05-13T06:18:23.775Z,24.46
2023-05-13T06:20:29.090Z,24.46
2023-05-13T06:22:34.219Z,24.42
2023-05-13T06:24:39.412Z,24.27
2023-05-13T06:26:44.623Z,24.01
2023-05-13T06:28:50.265Z,23.8
2023-05-13T06:30:55.565Z,23.63
2023-05-13T06:33:02.334Z,23.47
2023-05-13T06:35:07.557Z,23.3
2023-05-13T06:37:12.584Z,23.17
2023-05-13T06:39:17.624Z,23.07
2023-05-13T06:41:22.626Z,22.98
2023-05-13T06:43:27.624Z,22.94
2023-05-13T06:45:32.672Z,22.88
2023-05-13T06:47:37.673Z,22.87
2023-05-13T06:49:42.940Z,22.83
2023-05-13T06:51:47.965Z,22.78
2023-05-13T06:53:53.081Z,22.72
2023-05-13T06:55:58.190Z,22.71
2023-05-13T06:58:03.269Z,22.66
2023-05-13T07:00:08.321Z,22.62
2023-05-13T07:02:13.646Z,22.6
2023-05-13T07:04:18.768Z,22.54
2023-05-13T07:06:24.483Z,22.5
2023-05-13T07:08:29.583Z,22.43
2023-05-13T07:10:34.674Z,22.4
2023-05-13T07:12:39.890Z,22.37
2023-05-13T07:14:45.025Z,22.37
2023-05-13T07:16:50.278Z,22.34
2023-05-13T07:18:55.588Z,22.32
2023-05-13T07:21:00.915Z,22.26
2023-05-13T07:23:06.122Z,22.29
2023-05-13T07:25:11.159Z,22.28
2023-05-13T07:27:16.315Z,22.26
2023-05-13T07:29:21.421Z,22.26
2023-05-13T07:31:28.837Z,22.29
2023-05-13T07:33:34.078Z,22.27
2023-05-13T07:35:39.473Z,22.28
2023-05-13T07:37:44.635Z,22.29
2023-05-13T07:39:49.874Z,22.3
2023-05-13T07:41:54.951Z,22.34
2023-05-13T07:44:00.062Z,22.38
2023-05-13T07:46:05.156Z,22.43
2023-05-13T07:48:10.311Z,22.46
2023-05-13T07:50:15.569Z,22.5
2023-05-13T07:52:20.724Z,22.54
2023-05-13T07:54:25.818Z,22.58
2023-05-13T07:56:30.969Z,22.62
2023-05-13T07:58:36.067Z,22.61
2023-05-13T08:00:41.272Z,22.61
2023-05-13T08:02:46.420Z,22.6
2023-05-13T08:04:51.703Z,22.64
2023-05-13T08:06:57.104Z,22.69
2023-05-13T08:09:02.381Z,22.73
2023-05-13T08:11:07.444Z,22.75
2023-05-13T08:13:12.650Z,22.79
2023-05-13T08:15:17.941Z,22.78
2023-05-13T08:17:23.537Z,22.78
2023-05-13T08:19:28.810Z,22.8
2023-05-13T08:21:35.012Z,22.84
2023-05-13T08:23:44.569Z,22.89
2023-05-13T08:25:50.676Z,22.94
2023-05-13T08:27:55.732Z,22.98
2023-05-13T08:30:00.983Z,23.02
2023-05-13T08:32:06.201Z,23.08
2023-05-13T08:34:11.568Z,23.11
2023-05-13T08:36:16.639Z,23.13
2023-05-13T08:38:21.819Z,23.16
2023-05-13T08:40:27.002Z,23.22
2023-05-13T08:42:32.074Z,23.23
2023-05-13T08:44:37.282Z,23.25
2023-05-13T08:46:42.335Z,23.3
2023-05-13T08:48:47.545Z,23.36
2023-05-13T08:50:52.645Z,23.43
2023-05-13T08:52:57.882Z,23.49
2023-05-13T08:55:03.158Z,23.52
2023-05-13T08:57:08.319Z,23.57
2023-05-13T08:59:13.483Z,23.62
2023-05-13T09:01:18.611Z,23.66
2023-05-13T09:03:23.869Z,23.71
2023-05-13T09:05:29.091Z,23.71
2023-05-13T09:07:34.946Z,23.75
2023-05-13T09:09:40.106Z,23.82
2023-05-13T09:11:45.197Z,23.88
2023-05-13T09:13:50.261Z,23.9
2023-05-13T09:15:55.532Z,23.93
2023-05-13T09:18:00.896Z,23.94
2023-05-13T09:20:06.237Z,23.98
2023-05-13T09:22:11.458Z,24.03
2023-05-13T09:24:16.491Z,24.06
2023-05-13T09:26:21.709Z,24.08
2023-05-13T09:28:26.878Z,24.13
2023-05-13T09:30:31.940Z,24.18
2023-05-13T09:32:37.107Z,24.16
2023-05-13T09:34:42.360Z,24.19
2023-05-13T09:36:48.319Z,24.19
2023-05-13T09:38:55.278Z,24.2
2023-05-13T09:41:00.377Z,24.25
2023-05-13T09:43:05.544Z,24.24
2023-05-13T09:45:10.649Z,24.25
2023-05-13T09:47:16.188Z,24.24
2023-05-13T09:49:21.606Z,24.29
2023-05-13T09:51:26.732Z,24.35
2023-05-13T09:53:31.818Z,24.4
2023-05-13T09:55:37.160Z,24.42
2023-05-13T09:57:42.404Z,24.41
2023-05-13T09:59:47.535Z,24.39
2023-05-13T10:01:52.680Z,24.45
2023-05-13T10:03:58.002Z,24.45
2023-05-13T10:06:03.630Z,24.42
2023-05-13T10:08:08.853Z,24.44
2023-05-13T10:10:14.036Z,24.46
2023-05-13T10:12:19.136Z,24.44
2023-05-13T10:14:24.246Z,24.42
2023-05-13T10:16:32.493Z,24.42
2023-05-13T10:21:47.206Z,24.45
2023-05-13T10:23:52.347Z,24.47
2023-05-13T10:25:57.569Z,24.45
2023-05-13T10:28:02.696Z,24.44
2023-05-13T10:30:07.703Z,24.43
2023-05-13T10:32:12.925Z,24.42
2023-05-13T10:34:18.196Z,24.48
2023-05-13T10:36:23.545Z,24.5
2023-05-13T10:38:28.698Z,24.63
2023-05-13T10:40:34.888Z,24.71
2023-05-13T10:42:40.022Z,24.73
2023-05-13T10:44:45.220Z,24.78
2023-05-13T10:46:50.557Z,24.8
2023-05-13T10:48:56.222Z,24.82
2023-05-13T10:51:01.296Z,24.86
2023-05-13T10:53:06.345Z,24.92
2023-05-13T10:55:11.428Z,24.96
2023-05-13T10:57:18.281Z,25.02
2023-05-13T10:59:23.869Z,25.04
2023-05-13T11:01:28.933Z,25.03
2023-05-13T11:03:34.483Z,25.03
2023-05-13T11:05:40.051Z,25
2023-05-13T11:07:45.290Z,25
2023-05-13T11:09:50.618Z,24.97
2023-05-13T11:11:55.729Z,24.91
2023-05-13T11:14:00.803Z,24.89
2023-05-13T11:16:05.887Z,24.84
2023-05-13T11:18:11.144Z,24.81
2023-05-13T11:20:16.420Z,24.83
2023-05-13T11:22:21.568Z,24.82
2023-05-13T11:24:26.875Z,24.88
2023-05-13T11:26:31.955Z,24.94
2023-05-13T11:28:37.084Z,24.94
2023-05-13T11:30:42.646Z,24.97
2023-05-13T11:32:47.778Z,25.01
2023-05-13T11:34:53.049Z,25.04
2023-05-13T11:36:58.145Z,25.03
2023-05-13T11:39:03.227Z,25.04
2023-05-13T11:41:08.430Z,25.04
2023-05-13T11:43:13.538Z,25.03
2023-05-13T11:45:18.685Z,25
2023-05-13T11:47:24.469Z,25.01
2023-05-13T11:49:29.864Z,25.03
2023-05-13T11:51:34.989Z,25.05
2023-05-13T11:53:40.398Z,25.04
2023-05-13T11:55:45.567Z,25.05
2023-05-13T11:57:50.663Z,25.03
2023-05-13T11:59:55.933Z,25.06
2023-05-13T12:02:01.104Z,25.06
2023-05-13T12:04:06.483Z,25.08
2023-05-13T12:06:11.583Z,25.1
2023-05-13T12:08:16.886Z,25.11
2023-05-13T12:10:22.096Z,25.13
2023-05-13T12:12:27.395Z,25.13
2023-05-13T12:14:32.543Z,25.16
2023-05-13T12:16:37.705Z,25.16
2023-05-13T12:18:43.117Z,25.16
2023-05-13T12:20:48.389Z,25.1
2023-05-13T12:22:53.568Z,25.08
2023-05-13T12:24:58.802Z,25.1
2023-05-13T12:27:03.963Z,25.08
2023-05-13T12:29:10.327Z,25.07
2023-05-13T12:31:16.583Z,25.05
2023-05-13T12:33:21.904Z,25.07
2023-05-13T12:35:27.159Z,25.05
2023-05-13T12:37:32.346Z,24.97
2023-05-13T12:39:37.564Z,24.93
2023-05-13T12:41:42.704Z,24.89
2023-05-13T12:43:47.775Z,24.84
2023-05-13T12:45:52.879Z,24.85
2023-05-13T12:47:58.073Z,24.84
2023-05-13T12:50:03.513Z,24.82
2023-05-13T12:52:08.606Z,24.81
2023-05-13T12:54:13.783Z,24.81
2023-05-13T12:56:18.912Z,24.78
2023-05-13T12:58:24.085Z,24.78
2023-05-13T13:00:29.263Z,24.79
2023-05-13T13:02:34.498Z,24.81
2023-05-13T13:04:40.164Z,24.81
2023-05-13T13:06:45.228Z,24.83
2023-05-13T13:08:50.336Z,24.87
2023-05-13T13:10:55.546Z,24.89
2023-05-13T13:13:00.690Z,24.89
2023-05-13T13:15:05.826Z,24.9
2023-05-13T13:17:10.884Z,24.95
2023-05-13T13:19:16.020Z,24.95
2023-05-13T13:21:21.627Z,24.98
2023-05-13T13:23:26.789Z,25
2023-05-13T13:25:32.000Z,25.02
2023-05-13T13:27:37.198Z,25.05
2023-05-13T13:29:42.783Z,25.07
2023-05-13T13:31:47.838Z,25.08
2023-05-13T13:33:53.090Z,25.11
2023-05-13T13:35:58.460Z,25.1
2023-05-13T13:38:03.577Z,25.08
2023-05-13T13:40:08.670Z,25.07
2023-05-13T13:42:13.824Z,25.09
2023-05-13T13:44:19.034Z,25.12
2023-05-13T13:46:24.245Z,25.13
2023-05-13T13:48:29.646Z,25.12
2023-05-13T13:50:34.858Z,25.16
2023-05-13T13:52:39.897Z,25.14
2023-05-13T13:54:45.293Z,25.12
2023-05-13T13:56:50.302Z,25.12
2023-05-13T13:58:55.438Z,25.07
2023-05-13T14:01:01.905Z,24.94
2023-05-13T14:03:07.141Z,24.79
2023-05-13T14:05:12.728Z,24.68
2023-05-13T14:07:17.919Z,24.68
2023-05-13T14:09:23.199Z,24.7
2023-05-13T14:11:28.351Z,24.72
2023-05-13T14:13:33.408Z,24.75
2023-05-13T14:15:38.487Z,24.76
2023-05-13T14:17:43.926Z,24.81
2023-05-13T14:19:49.265Z,24.83
2023-05-13T14:21:54.338Z,24.84
2023-05-13T14:23:59.533Z,24.85
2023-05-13T14:26:04.569Z,24.9
2023-05-13T14:28:09.684Z,24.9
2023-05-13T14:30:14.894Z,24.89
2023-05-13T14:32:20.031Z,24.91
2023-05-13T14:34:25.156Z,24.91
2023-05-13T14:36:30.484Z,24.95
2023-05-13T14:38:35.647Z,24.92
2023-05-13T14:40:40.787Z,24.92
2023-05-13T14:42:45.861Z,24.91
2023-05-13T14:44:50.966Z,24.91
2023-05-13T14:46:56.351Z,24.91
2023-05-13T14:49:01.749Z,24.89
2023-05-13T14:51:06.849Z,24.89
2023-05-13T14:53:12.044Z,24.9
2023-05-13T14:55:17.112Z,24.9
2023-05-13T14:57:22.228Z,24.92
2023-05-13T14:59:27.364Z,24.92
2023-05-13T15:01:32.540Z,24.94
2023-05-13T15:03:38.265Z,24.9
2023-05-13T15:05:44.252Z,24.91
2023-05-13T15:07:49.633Z,24.91
2023-05-13T15:09:54.783Z,24.89
2023-05-13T15:11:59.992Z,24.89
2023-05-13T15:14:05.097Z,24.85
2023-05-13T15:16:10.211Z,24.76
2023-05-13T15:18:15.416Z,24.7
2023-05-13T15:20:20.660Z,24.65
2023-05-13T15:22:26.577Z,24.61
2023-05-13T15:24:31.674Z,24.61
2023-05-13T15:26:36.794Z,24.59
2023-05-13T15:28:41.995Z,24.58
2023-05-13T15:30:47.196Z,24.63
2023-05-13T15:32:52.749Z,24.65
2023-05-13T15:34:57.967Z,24.66
2023-05-13T15:37:03.065Z,24.66
2023-05-13T15:39:08.184Z,24.64
2023-05-13T15:41:13.357Z,24.65
2023-05-13T15:43:18.436Z,24.69
2023-05-13T15:45:23.693Z,24.72
2023-05-13T15:47:28.877Z,24.73
2023-05-13T15:49:34.561Z,24.71
2023-05-13T15:51:39.767Z,24.66
2023-05-13T15:53:44.841Z,24.62
2023-05-13T15:55:50.009Z,24.6
2023-05-13T15:57:55.326Z,24.61
2023-05-13T16:00:00.447Z,24.65
2023-05-13T16:02:05.536Z,24.64
2023-05-13T16:04:10.917Z,24.66
2023-05-13T16:06:16.341Z,24.67
2023-05-13T16:08:21.430Z,24.69
2023-05-13T16:10:26.452Z,24.68
2023-05-13T16:12:31.419Z,24.66
2023-05-13T16:14:36.564Z,24.64
2023-05-13T16:16:41.618Z,24.63
2023-05-13T16:18:47.040Z,24.64
2023-05-13T16:20:52.309Z,24.66
2023-05-13T16:22:57.408Z,24.66
2023-05-13T16:25:02.461Z,24.65
2023-05-13T16:27:07.699Z,24.59
2023-05-13T16:29:13.155Z,24.57
2023-05-13T16:31:18.293Z,24.55
2023-05-13T16:33:23.768Z,24.52
2023-05-13T16:35:28.851Z,24.54
2023-05-13T16:37:34.037Z,24.56
2023-05-13T16:39:39.234Z,24.56
2023-05-13T16:41:44.396Z,24.55
2023-05-13T16:43:49.683Z,24.53
2023-05-13T16:45:54.928Z,24.5
2023-05-13T16:48:00.090Z,24.48
2023-05-13T16:50:05.604Z,24.49
2023-05-13T16:52:10.702Z,24.48
2023-05-13T16:54:16.126Z,24.49
2023-05-13T16:56:21.153Z,24.5
2023-05-13T16:58:26.158Z,24.51
2023-05-13T17:00:31.243Z,24.47
2023-05-13T17:02:36.386Z,24.45
2023-05-13T17:04:42.002Z,24.46
2023-05-13T17:06:47.200Z,24.51
2023-05-13T17:08:52.524Z,24.5
2023-05-13T17:10:57.698Z,24.49
2023-05-13T17:13:03.042Z,24.5
2023-05-13T17:15:08.312Z,24.49
2023-05-13T17:17:13.494Z,24.48
2023-05-13T17:19:18.772Z,24.45
2023-05-13T17:21:24.208Z,24.41
2023-05-13T17:23:29.416Z,24.39
2023-05-13T17:25:34.508Z,24.37
2023-05-13T17:27:40.695Z,24.39
2023-05-13T17:29:45.815Z,24.38
2023-05-13T17:31:51.003Z,24.41
2023-05-13T17:33:56.128Z,24.4
2023-05-13T17:36:01.335Z,24.38
2023-05-13T17:38:06.383Z,24.34
2023-05-13T17:40:11.436Z,24.32
2023-05-13T17:42:16.519Z,24.31
2023-05-13T17:44:21.576Z,24.33
2023-05-13T17:46:26.817Z,24.3
2023-05-13T17:48:32.154Z,24.28
2023-05-13T17:50:37.570Z,24.3
2023-05-13T17:52:42.638Z,24.33
2023-05-13T17:54:47.738Z,24.29
2023-05-13T17:56:52.918Z,24.33
2023-05-13T17:58:58.203Z,24.29
2023-05-13T18:01:03.379Z,24.24
2023-05-13T18:03:08.698Z,24.26
2023-05-13T18:05:13.990Z,24.31
2023-05-13T18:07:19.414Z,24.31
2023-05-13T18:09:24.602Z,24.35
2023-05-13T18:11:29.766Z,24.26
2023-05-13T18:13:34.962Z,24.23
2023-05-13T18:15:40.123Z,24.16
2023-05-13T18:17:45.469Z,24.19
2023-05-13T18:19:50.910Z,24.21
2023-05-13T18:21:56.094Z,24.24
2023-05-13T18:24:01.228Z,24.22
2023-05-13T18:26:06.369Z,24.18
2023-05-13T18:28:11.654Z,24.16
2023-05-13T18:30:16.928Z,24.19
2023-05-13T18:32:22.041Z,24.17
2023-05-13T18:34:27.444Z,24.15
2023-05-13T18:36:32.551Z,24.13
2023-05-13T18:38:37.803Z,24.11
2023-05-13T18:40:42.919Z,24.13
2023-05-13T18:42:48.008Z,24.14
2023-05-13T18:44:53.128Z,24.14
2023-05-13T18:46:58.209Z,24.2
2023-05-13T18:49:03.378Z,24.3
2023-05-13T18:51:08.613Z,24.36
2023-05-13T18:53:13.700Z,24.43
2023-05-13T18:55:18.982Z,24.48
2023-05-13T18:57:24.091Z,24.51
2023-05-13T18:59:29.250Z,24.54
2023-05-13T19:01:34.364Z,24.61
2023-05-13T19:03:39.825Z,24.67
2023-05-13T19:05:45.488Z,24.72
2023-05-13T19:07:50.572Z,24.74
2023-05-13T19:09:55.818Z,24.77
2023-05-13T19:12:00.966Z,24.8
2023-05-13T19:14:06.171Z,24.8
2023-05-13T19:16:11.355Z,24.82
2023-05-13T19:18:16.537Z,24.81
2023-05-13T19:20:22.063Z,24.83
2023-05-13T19:22:27.587Z,24.85
2023-05-13T19:24:32.606Z,24.87
2023-05-13T19:26:37.660Z,24.88
2023-05-13T19:28:42.732Z,24.9
2023-05-13T19:30:47.901Z,24.91
2023-05-13T19:32:53.265Z,24.94
2023-05-13T19:34:58.585Z,24.97
2023-05-13T19:37:03.680Z,25.02
2023-05-13T19:39:08.919Z,25.04
2023-05-13T19:41:14.009Z,25.05
2023-05-13T19:43:19.230Z,25.07
2023-05-13T19:45:24.363Z,25.07
2023-05-13T19:47:29.630Z,25.07
2023-05-13T19:49:34.992Z,25.08
2023-05-13T19:51:40.264Z,25.1
2023-05-13T19:53:45.405Z,25.08
2023-05-13T19:55:50.527Z,25.09
2023-05-13T19:57:55.699Z,25.07
2023-05-13T20:00:00.894Z,25.09
2023-05-13T20:02:06.034Z,25.1
2023-05-13T20:04:11.767Z,25.07
2023-05-13T20:06:17.133Z,25.12
2023-05-13T20:08:22.211Z,25.13
2023-05-13T20:10:27.494Z,25.13
2023-05-13T20:12:32.544Z,25.14
2023-05-13T20:14:37.691Z,25.1
2023-05-13T20:16:42.842Z,25.08
2023-05-13T20:18:48.208Z,25.07
2023-05-13T20:20:53.544Z,25.09
2023-05-13T20:22:58.626Z,25.1
2023-05-13T20:25:03.762Z,25.09
2023-05-13T20:27:09.057Z,25.08
2023-05-13T20:29:14.139Z,25.05
2023-05-13T20:31:19.248Z,25.04
2023-05-13T20:33:24.445Z,25.04
2023-05-13T20:35:29.594Z,25.03
2023-05-13T20:37:35.234Z,25.01
2023-05-13T20:39:40.311Z,25.03
2023-05-13T20:41:45.413Z,25.04
2023-05-13T20:43:50.561Z,25.06
2023-05-13T20:45:55.782Z,25.07
2023-05-13T20:48:01.103Z,25.13
2023-05-13T20:50:06.288Z,25.19
2023-05-13T20:52:11.498Z,25.22
2023-05-13T20:54:16.764Z,25.26
2023-05-13T20:56:21.788Z,25.29
2023-05-13T20:58:26.845Z,25.36
2023-05-13T21:00:31.963Z,25.4
2023-05-13T21:02:37.123Z,25.42
2023-05-13T21:04:42.406Z,25.44
2023-05-13T21:06:47.460Z,25.45
2023-05-13T21:08:52.709Z,25.44
2023-05-13T21:10:58.025Z,25.46
2023-05-13T21:13:03.159Z,25.47
2023-05-13T21:15:08.223Z,25.5
2023-05-13T21:17:15.205Z,25.49
2023-05-13T21:19:20.275Z,25.5
2023-05-13T21:21:25.386Z,25.5
2023-05-13T21:23:30.584Z,25.52
2023-05-13T21:25:35.667Z,25.53
2023-05-13T21:27:40.876Z,25.52
2023-05-13T21:29:46.065Z,25.52
2023-05-13T21:31:51.182Z,25.53
2023-05-13T21:33:56.263Z,25.55
2023-05-13T21:36:01.426Z,25.54
2023-05-13T21:38:11.818Z,25.54
2023-05-13T21:40:17.635Z,25.56
2023-05-13T21:42:22.737Z,25.56
2023-05-13T21:44:27.822Z,25.59
2023-05-13T21:46:32.991Z,25.58
2023-05-13T21:48:38.247Z,25.59
2023-05-13T21:50:43.638Z,25.56
2023-05-13T21:52:48.766Z,25.57
2023-05-13T21:54:53.870Z,25.59
2023-05-13T21:56:58.946Z,25.59
2023-05-13T21:59:04.069Z,25.59
2023-05-13T22:01:09.272Z,25.59
2023-05-13T22:03:14.626Z,25.58
2023-05-13T22:05:19.977Z,25.55
2023-05-13T22:07:25.092Z,25.51
2023-05-13T22:09:30.238Z,25.41
2023-05-13T22:11:35.328Z,25.35
2023-05-13T22:13:40.387Z,25.26
2023-05-13T22:15:45.420Z,25.23
2023-05-13T22:17:50.901Z,25.18
2023-05-13T22:19:56.346Z,25.11
2023-05-13T22:22:01.409Z,25.06
2023-05-13T22:24:06.695Z,25.02
2023-05-13T22:26:11.968Z,24.98
2023-05-13T22:28:17.067Z,24.96
2023-05-13T22:30:22.354Z,24.94
2023-05-13T22:32:28.150Z,24.9
2023-05-13T22:34:33.496Z,24.93
2023-05-13T22:36:38.550Z,24.99
2023-05-13T22:38:47.016Z,25.02
2023-05-13T22:40:52.094Z,25.06
2023-05-13T22:42:57.166Z,25.08
2023-05-13T22:45:02.291Z,25.12
2023-05-13T22:47:07.506Z,25.12
2023-05-13T22:49:12.739Z,25.16
2023-05-13T22:51:17.878Z,25.16
2023-05-13T22:53:22.958Z,25.17
2023-05-13T22:55:28.219Z,25.16
2023-05-13T22:57:33.296Z,25.17
2023-05-13T22:59:38.493Z,25.15
2023-05-13T23:01:43.653Z,25.13
2023-05-13T23:03:48.918Z,25.12
2023-05-13T23:05:54.133Z,25.12
2023-05-13T23:07:59.222Z,25.09
2023-05-13T23:10:04.279Z,25.08
2023-05-13T23:12:09.375Z,25.06
2023-05-13T23:14:14.463Z,25.06
2023-05-13T23:16:19.776Z,25.03
2023-05-13T23:18:25.078Z,25.02
2023-05-13T23:20:30.254Z,24.99
2023-05-13T23:22:35.335Z,25
2023-05-13T23:24:40.411Z,24.99
2023-05-13T23:26:47.213Z,24.98
2023-05-13T23:28:52.470Z,24.96
2023-05-13T23:30:57.543Z,24.96
2023-05-13T23:33:02.620Z,24.95
2023-05-13T23:35:07.801Z,24.93
2023-05-13T23:37:12.947Z,24.93
2023-05-13T23:39:18.025Z,24.9
2023-05-13T23:41:23.212Z,24.91
2023-05-13T23:43:28.274Z,24.89
2023-05-13T23:45:33.340Z,24.89
2023-05-13T23:47:38.610Z,24.88
2023-05-13T23:49:44.051Z,24.88
2023-05-13T23:51:49.216Z,24.85
2023-05-13T23:53:54.271Z,24.86
2023-05-13T23:55:59.423Z,24.85
2023-05-13T23:58:04.811Z,24.84
